createdAt,value
2019-04-23T00:02:13.460Z,1.85
2019-04-23T00:04:36.727Z,2.72
2019-04-23T00:07:26.964Z,1.70
2019-04-23T00:10:26.216Z,3.00
2019-04-23T00:12:49.628Z,2.83
2019-04-23T00:15:58.773Z,2.58
2019-04-23T00:18:39.124Z,3.15
2019-04-23T00:21:26.607Z,3.25
2019-04-23T00:24:03.086Z,2.55
2019-04-23T00:26:33.240Z,3.25
2019-04-23T00:31:40.869Z,3.05
2019-04-23T00:34:16.006Z,2.37
2019-04-23T00:36:51.443Z,2.75
2019-04-23T00:39:29.869Z,2.50
2019-04-23T00:42:23.947Z,3.00
2019-04-23T00:45:00.431Z,3.02
2019-04-23T00:47:38.773Z,3.27
2019-04-23T00:50:42.865Z,2.58
2019-04-23T00:55:44.854Z,2.83
2019-04-23T01:00:56.047Z,3.25
2019-04-23T01:03:27.370Z,3.08
2019-04-23T01:06:08.077Z,3.00
2019-04-23T01:08:50.794Z,2.77
2019-04-23T01:13:54.016Z,3.35
2019-04-23T01:16:33.307Z,3.60
2019-04-23T01:19:46.245Z,2.75
2019-04-23T01:21:57.951Z,3.08
2019-04-23T01:24:50.815Z,4.42
2019-04-23T01:31:09.331Z,3.10
2019-04-23T01:33:47.124Z,2.70
2019-04-23T01:36:23.445Z,4.05
2019-04-23T01:42:05.184Z,2.87
2019-04-23T01:45:20.350Z,3.75
2019-04-23T01:47:46.029Z,3.27
2019-04-23T01:55:27.992Z,4.45
2019-04-23T02:00:40.999Z,4.28
2019-04-23T02:03:18.469Z,3.50
2019-04-23T02:05:48.208Z,3.50
2019-04-23T02:08:26.241Z,3.62
2019-04-23T02:11:00.587Z,4.17
2019-04-23T02:13:36.641Z,4.00
2019-04-23T02:19:12.545Z,5.28
2019-04-23T02:21:39.953Z,3.65
2019-04-23T02:24:20.996Z,3.90
2019-04-23T02:26:48.702Z,4.30
2019-04-23T02:29:55.986Z,3.80
2019-04-23T02:35:20.882Z,4.72
2019-04-23T02:37:54.262Z,3.35
2019-04-23T02:41:27.107Z,4.87
2019-04-23T02:43:25.979Z,4.62
2019-04-23T02:56:51.101Z,4.45
2019-04-23T03:07:33.421Z,5.40
2019-04-23T03:10:00.566Z,5.12
2019-04-23T03:15:14.465Z,5.87
2019-04-23T03:17:59.237Z,5.40
2019-04-23T03:20:37.922Z,5.03
2019-04-23T03:23:16.500Z,5.03
2019-04-23T03:26:09.197Z,5.60
2019-04-23T03:41:23.509Z,6.75
2019-04-23T03:48:47.663Z,6.42
2019-04-23T03:51:16.680Z,6.55
2019-04-23T03:53:54.235Z,6.40
2019-04-23T03:56:22.289Z,6.33
2019-04-23T04:06:45.497Z,6.35
2019-04-23T04:11:19.205Z,7.45
2019-04-23T04:14:11.804Z,6.30
2019-04-23T04:16:51.616Z,6.95
2019-04-23T04:19:25.149Z,6.90
2019-04-23T04:22:03.115Z,6.62
2019-04-23T04:24:27.093Z,6.50
2019-04-23T04:26:59.574Z,6.90
2019-04-23T04:29:27.541Z,6.47
2019-04-23T04:31:57.149Z,6.20
2019-04-23T04:37:26.903Z,6.30
2019-04-23T04:39:34.350Z,7.28
2019-04-23T04:44:42.702Z,7.40
2019-04-23T04:46:59.840Z,6.97
2019-04-23T04:49:48.702Z,6.67
2019-04-23T04:54:39.323Z,7.90
2019-04-23T04:57:12.813Z,9.83
2019-04-23T05:00:06.479Z,8.15
2019-04-23T05:07:27.540Z,6.83
2019-04-23T05:12:23.674Z,8.48
2019-04-23T05:14:58.606Z,8.35
2019-04-23T05:20:58.065Z,9.08
2019-04-23T05:23:42.915Z,7.08
2019-04-23T05:26:21.104Z,7.90
2019-04-23T05:31:18.651Z,7.67
2019-04-23T05:33:57.294Z,8.98
2019-04-23T05:36:32.416Z,7.75
2019-04-23T05:39:15.797Z,8.00
2019-04-23T05:43:59.521Z,8.00
2019-04-23T05:48:59.549Z,7.30
2019-04-23T05:51:38.805Z,8.50
2019-04-23T05:56:32.473Z,7.50
2019-04-23T05:59:06.253Z,8.48
2019-04-23T06:09:15.761Z,8.05
2019-04-23T06:14:18.927Z,7.40
2019-04-23T06:24:24.965Z,6.60
2019-04-23T06:26:57.512Z,6.87
2019-04-23T06:31:49.239Z,6.83
2019-04-23T06:34:21.760Z,7.63
2019-04-23T06:36:50.774Z,6.20
2019-04-23T06:39:28.687Z,6.75
2019-04-23T06:41:56.353Z,7.45
2019-04-23T06:44:35.847Z,7.75
2019-04-23T06:47:03.696Z,7.28
2019-04-23T06:49:37.695Z,7.90
2019-04-23T06:52:14.958Z,6.53
2019-04-23T06:57:14.881Z,8.45
2019-04-23T06:59:37.238Z,6.62
2019-04-23T07:04:55.395Z,7.83
2019-04-23T07:07:36.571Z,7.28
2019-04-23T07:09:40.145Z,7.67
2019-04-23T07:12:15.067Z,7.28
2019-04-23T07:14:51.584Z,7.25
2019-04-23T07:17:13.461Z,7.45
2019-04-23T07:19:48.436Z,6.80
2019-04-23T07:22:21.883Z,7.97
2019-04-23T07:24:51.046Z,8.35
2019-04-23T07:27:26.250Z,7.72
2019-04-23T07:29:56.603Z,7.60
2019-04-23T07:32:23.647Z,8.25
2019-04-23T07:35:02.489Z,7.97
2019-04-23T07:40:23.007Z,7.83
2019-04-23T07:42:56.602Z,7.80
2019-04-23T07:45:34.984Z,7.17
2019-04-23T07:50:44.124Z,8.28
2019-04-23T07:53:19.387Z,7.83
2019-04-23T07:55:48.546Z,7.22
2019-04-23T08:05:49.514Z,9.00
2019-04-23T08:08:26.906Z,9.20
2019-04-23T08:11:30.442Z,9.73
2019-04-23T08:16:19.687Z,8.45
2019-04-23T08:18:45.346Z,8.13
2019-04-23T08:21:25.739Z,7.40
2019-04-23T08:24:06.571Z,8.65
2019-04-23T08:26:55.238Z,8.33
2019-04-23T08:29:26.850Z,8.60
2019-04-23T08:32:00.326Z,8.08
2019-04-23T08:37:05.064Z,9.20
2019-04-23T08:39:42.150Z,8.35
2019-04-23T08:42:28.784Z,7.85
2019-04-23T08:45:28.604Z,8.18
2019-04-23T08:50:46.566Z,8.10
2019-04-23T08:55:53.937Z,8.58
2019-04-23T09:00:59.160Z,7.73
2019-04-23T09:03:30.072Z,7.50
2019-04-23T09:06:06.442Z,8.17
2019-04-23T09:08:36.011Z,8.40
2019-04-23T09:11:19.465Z,7.80
2019-04-23T09:16:22.099Z,7.50
2019-04-23T09:18:38.382Z,8.20
2019-04-23T09:21:10.623Z,8.37
2019-04-23T09:26:08.377Z,8.10
2019-04-23T09:28:59.746Z,7.60
2019-04-23T09:32:00.664Z,7.87
2019-04-23T09:34:26.487Z,9.00
2019-04-23T09:37:35.742Z,9.17
2019-04-23T09:41:02.357Z,8.17
2019-04-23T09:46:24.267Z,7.80
2019-04-23T09:51:33.185Z,8.20
2019-04-23T09:54:03.276Z,7.30
2019-04-23T09:56:37.744Z,8.47
2019-04-23T09:59:10.949Z,8.40
2019-04-23T10:01:41.042Z,8.30
2019-04-23T10:03:53.359Z,8.40
2019-04-23T10:06:16.799Z,8.03
2019-04-23T10:08:49.000Z,8.13
2019-04-23T10:11:13.915Z,8.97
2019-04-23T10:13:45.088Z,8.17
2019-04-23T10:16:17.141Z,8.07
2019-04-23T10:18:46.997Z,8.00
2019-04-23T10:21:17.522Z,8.53
2019-04-23T10:23:47.454Z,9.03
2019-04-23T10:26:17.208Z,8.50
2019-04-23T10:28:53.868Z,8.70
2019-04-23T10:31:27.026Z,8.83
2019-04-23T10:33:58.025Z,8.73
2019-04-23T10:36:29.919Z,9.67
2019-04-23T10:39:08.599Z,8.60
2019-04-23T10:41:33.635Z,8.40
2019-04-23T10:44:13.512Z,8.33
2019-04-23T10:47:30.137Z,8.20
2019-04-23T10:50:14.256Z,8.83
2019-04-23T10:52:37.643Z,10.53
2019-04-23T10:55:09.096Z,9.20
2019-04-23T10:57:39.189Z,9.47
2019-04-23T11:00:09.219Z,9.53
2019-04-23T11:02:51.773Z,9.10
2019-04-23T11:05:36.153Z,8.63
2019-04-23T11:07:38.478Z,9.10
2019-04-23T11:10:17.447Z,9.27
2019-04-23T11:12:50.770Z,8.57
2019-04-23T11:17:59.404Z,9.50
2019-04-23T11:20:46.149Z,10.13
2019-04-23T11:23:01.675Z,9.93
2019-04-23T11:25:37.447Z,8.27
2019-04-23T11:28:13.537Z,8.60
2019-04-23T11:30:41.446Z,10.10
2019-04-23T11:33:25.149Z,10.00
2019-04-23T11:36:01.425Z,9.27
2019-04-23T11:40:54.298Z,8.30
2019-04-23T11:43:29.095Z,8.90
2019-04-23T11:53:34.171Z,8.30
2019-04-23T11:56:09.197Z,8.70
2019-04-23T11:58:39.659Z,9.37
2019-04-23T12:04:14.110Z,9.80
2019-04-23T12:06:54.385Z,9.87
2019-04-23T12:14:41.975Z,9.03
2019-04-23T12:18:02.878Z,9.60
2019-04-23T12:22:17.961Z,9.23
2019-04-23T12:25:02.582Z,8.53
2019-04-23T12:35:16.753Z,8.13
2019-04-23T12:37:40.714Z,7.80
2019-04-23T12:40:24.850Z,7.80
2019-04-23T12:42:57.008Z,7.40
2019-04-23T12:45:25.064Z,8.20
2019-04-23T12:47:58.278Z,8.70
2019-04-23T12:55:35.873Z,9.90
2019-04-23T13:00:28.817Z,7.70
2019-04-23T13:13:11.385Z,7.70
2019-04-23T13:18:03.028Z,6.47
2019-04-23T13:20:31.893Z,7.80
2019-04-23T13:23:11.808Z,6.57
2019-04-23T13:25:49.493Z,6.47
2019-04-23T13:33:32.255Z,7.40
2019-04-23T13:41:01.112Z,6.17
2019-04-23T13:43:36.264Z,6.00
2019-04-23T13:48:21.691Z,7.47
2019-04-23T13:56:03.729Z,7.20
2019-04-23T13:58:38.702Z,7.57
2019-04-23T14:01:20.054Z,7.27
2019-04-23T14:03:41.250Z,7.33
2019-04-23T14:06:27.604Z,6.30
2019-04-23T14:08:55.312Z,6.93
2019-04-23T14:11:19.834Z,6.17
2019-04-23T14:18:56.525Z,6.53
2019-04-23T14:26:32.179Z,6.53
2019-04-23T14:36:52.719Z,7.90
2019-04-23T14:46:50.397Z,7.80
2019-04-23T14:49:22.066Z,8.07
2019-04-23T14:51:51.705Z,7.97
2019-04-23T14:54:34.574Z,7.87
2019-04-23T14:57:03.910Z,8.30
2019-04-23T14:59:14.996Z,9.23
2019-04-23T15:04:32.122Z,8.03
2019-04-23T15:07:09.247Z,9.20
2019-04-23T15:14:47.936Z,8.10
2019-04-23T15:17:15.872Z,9.83
2019-04-23T15:19:49.393Z,8.87
2019-04-23T15:24:48.617Z,8.53
2019-04-23T15:29:39.080Z,8.80
2019-04-23T15:32:26.313Z,7.83
2019-04-23T15:35:03.046Z,8.17
2019-04-23T15:40:05.760Z,9.30
2019-04-23T15:45:01.331Z,8.70
2019-04-23T15:47:36.090Z,9.80
2019-04-23T15:50:10.457Z,9.03
2019-04-23T15:52:48.434Z,8.60
2019-04-23T15:55:05.998Z,8.50
2019-04-23T15:57:54.109Z,9.10
2019-04-23T16:00:08.789Z,8.67
2019-04-23T16:02:10.784Z,8.60
2019-04-23T16:04:43.865Z,9.40
2019-04-23T16:07:29.657Z,8.43
2019-04-23T16:10:17.745Z,10.17
2019-04-23T16:12:55.400Z,8.73
2019-04-23T16:15:13.277Z,9.10
2019-04-23T16:18:09.781Z,9.30
2019-04-23T16:23:09.615Z,9.67
2019-04-23T16:25:32.433Z,11.10
2019-04-23T16:28:03.529Z,9.27
2019-04-23T16:30:32.575Z,7.90
2019-04-23T16:38:35.997Z,8.80
2019-04-23T16:40:51.473Z,9.10
2019-04-23T16:43:40.837Z,9.73
2019-04-23T16:46:03.161Z,8.90
2019-04-23T16:56:13.124Z,8.67
2019-04-23T16:58:54.408Z,8.87
2019-04-23T17:03:37.892Z,9.27
2019-04-23T17:06:15.836Z,9.20
2019-04-23T17:08:52.978Z,9.77
2019-04-23T17:13:45.676Z,10.33
2019-04-23T17:16:28.488Z,9.17
2019-04-23T17:21:36.826Z,9.20
2019-04-23T17:24:20.897Z,9.50
2019-04-23T17:26:54.318Z,8.00
2019-04-23T17:29:34.964Z,8.90
2019-04-23T17:32:25.341Z,9.17
2019-04-23T17:35:17.400Z,8.43
2019-04-23T17:38:27.909Z,8.87
2019-04-23T17:41:31.629Z,8.53
2019-04-23T17:44:01.393Z,9.40
2019-04-23T17:46:27.002Z,8.80
2019-04-23T17:49:04.350Z,8.93
2019-04-23T17:51:35.922Z,9.33
2019-04-23T17:54:13.817Z,9.00
2019-04-23T18:00:08.689Z,9.57
2019-04-23T18:02:51.803Z,8.70
2019-04-23T18:10:18.288Z,9.53
2019-04-23T18:12:51.711Z,9.53
2019-04-23T18:15:14.819Z,8.93
2019-04-23T18:17:48.517Z,9.37
2019-04-23T18:20:34.387Z,8.87
2019-04-23T18:23:05.778Z,9.07
2019-04-23T18:25:45.227Z,9.73
2019-04-23T18:28:15.042Z,10.97
2019-04-23T18:36:33.363Z,9.50
2019-04-23T18:39:15.201Z,10.07
2019-04-23T18:42:04.086Z,10.73
2019-04-23T18:47:15.470Z,10.07
2019-04-23T18:52:30.048Z,10.40
2019-04-23T18:55:08.806Z,10.90
2019-04-23T19:00:21.399Z,10.67
2019-04-23T19:03:01.329Z,10.97
2019-04-23T19:05:57.014Z,10.70
2019-04-23T19:08:42.467Z,11.13
2019-04-23T19:11:09.149Z,10.30
2019-04-23T19:13:33.880Z,10.10
2019-04-23T19:15:59.785Z,10.77
2019-04-23T19:18:40.470Z,11.50
2019-04-23T19:26:23.050Z,12.40
2019-04-23T19:28:47.652Z,11.90
2019-04-23T19:34:24.833Z,10.77
2019-04-23T19:36:54.265Z,11.50
2019-04-23T19:41:57.087Z,12.00
2019-04-23T19:44:44.083Z,10.47
2019-04-23T19:46:56.097Z,11.23
2019-04-23T19:49:28.901Z,11.07
2019-04-23T19:54:39.256Z,12.43
2019-04-23T19:59:34.521Z,13.33
2019-04-23T20:02:00.217Z,11.33
2019-04-23T20:04:28.700Z,13.00
2019-04-23T20:09:46.119Z,11.63
2019-04-23T20:12:03.220Z,12.40
2019-04-23T20:17:22.895Z,11.43
2019-04-23T20:19:44.033Z,10.70
2019-04-23T20:22:14.413Z,12.00
2019-04-23T20:24:57.618Z,11.40
2019-04-23T20:27:42.947Z,12.97
2019-04-23T20:32:57.197Z,12.00
2019-04-23T20:35:26.955Z,12.07
2019-04-23T20:38:25.521Z,11.33
2019-04-23T20:40:33.934Z,9.87
2019-04-23T20:47:57.769Z,10.50
2019-04-23T20:50:34.533Z,12.97
2019-04-23T20:52:59.309Z,11.97
2019-04-23T20:55:52.881Z,10.90
2019-04-23T20:58:32.024Z,11.20
2019-04-23T21:01:34.815Z,11.37
2019-04-23T21:03:54.872Z,11.77
2019-04-23T21:06:45.896Z,12.20
2019-04-23T21:09:24.496Z,11.20
2019-04-23T21:11:40.431Z,12.53
2019-04-23T21:19:11.970Z,12.67
2019-04-23T21:22:06.085Z,11.13
2019-04-23T21:24:39.734Z,12.47
2019-04-23T21:27:46.750Z,11.40
2019-04-23T21:30:03.378Z,13.30
2019-04-23T21:32:42.357Z,10.93
2019-04-23T21:35:16.845Z,11.60
2019-04-23T21:37:53.763Z,11.70
2019-04-23T21:40:59.155Z,12.37
2019-04-23T21:43:16.009Z,13.80
2019-04-23T21:46:02.449Z,12.40
2019-04-23T21:48:36.746Z,12.40
2019-04-23T21:51:11.404Z,13.07
2019-04-23T21:53:26.645Z,13.00
2019-04-23T21:58:44.106Z,12.20
2019-04-23T22:01:05.336Z,13.17
2019-04-23T22:04:01.768Z,12.47
2019-04-23T22:06:16.466Z,12.57
2019-04-23T22:09:22.639Z,13.40
2019-04-23T22:14:10.295Z,12.60
2019-04-23T22:16:48.857Z,12.70
2019-04-23T22:19:34.294Z,13.97
2019-04-23T22:21:57.536Z,17.30
2019-04-23T22:24:37.091Z,14.57
2019-04-23T22:27:02.853Z,14.07
2019-04-23T22:32:02.575Z,13.60
2019-04-23T22:39:45.828Z,12.73
2019-04-23T22:42:23.941Z,13.80
2019-04-23T22:45:12.381Z,13.60
2019-04-23T22:47:39.428Z,12.55
2019-04-23T22:50:10.880Z,12.20
2019-04-23T22:52:48.715Z,14.60
2019-04-23T22:58:00.766Z,14.53
2019-04-23T23:00:16.735Z,13.85
2019-04-23T23:06:04.372Z,13.98
2019-04-23T23:08:13.133Z,14.80
2019-04-23T23:10:50.755Z,14.38
2019-04-23T23:13:41.847Z,14.87
2019-04-23T23:15:53.217Z,14.50
2019-04-23T23:18:35.341Z,14.50
2019-04-23T23:23:40.523Z,14.33
2019-04-23T23:26:02.393Z,13.67
2019-04-23T23:28:35.763Z,14.43
2019-04-23T23:31:13.818Z,14.20
2019-04-23T23:33:36.522Z,14.27
2019-04-23T23:36:10.413Z,13.50
2019-04-23T23:41:13.650Z,13.27
2019-04-23T23:43:56.625Z,13.90
2019-04-23T23:46:20.823Z,13.80
2019-04-23T23:51:23.246Z,14.93
2019-04-23T23:53:50.500Z,14.57
2019-04-23T23:56:19.388Z,14.00
2019-04-23T23:58:57.078Z,13.73
